createdAt,value
2022-08-25T00:02:06.669Z,13.77
2022-08-25T00:07:08.332Z,14.23
2022-08-25T00:12:09.972Z,14.23
2022-08-25T00:17:12.100Z,13.90
2022-08-25T00:22:14.183Z,14.27
2022-08-25T00:27:16.584Z,13.55
2022-08-25T00:32:18.587Z,13.82
2022-08-25T00:37:20.464Z,13.57
2022-08-25T00:42:22.605Z,14.07
2022-08-25T00:47:25.321Z,13.82
2022-08-25T00:52:36.377Z,14.88
2022-08-25T00:57:43.320Z,14.20
2022-08-25T01:02:46.309Z,13.75
2022-08-25T01:07:49.540Z,13.40
2022-08-25T01:12:56.893Z,12.02
2022-08-25T01:17:59.868Z,14.25
2022-08-25T01:23:02.283Z,13.55
2022-08-25T01:28:05.141Z,13.18
2022-08-25T01:33:10.423Z,13.77
2022-08-25T01:38:12.505Z,12.38
2022-08-25T01:43:37.220Z,12.45
2022-08-25T01:48:39.047Z,13.48
2022-08-25T01:53:40.886Z,14.40
2022-08-25T01:58:46.433Z,12.82
2022-08-25T02:03:54.503Z,12.95
2022-08-25T02:08:58.971Z,13.27
2022-08-25T02:14:01.072Z,12.70
2022-08-25T02:19:06.293Z,12.73
2022-08-25T02:24:08.697Z,13.38
2022-08-25T02:29:10.789Z,13.48
2022-08-25T02:34:12.959Z,13.10
2022-08-25T02:39:14.904Z,12.52
2022-08-25T02:44:16.521Z,14.30
2022-08-25T02:49:18.791Z,13.82
2022-08-25T02:54:20.928Z,12.65
2022-08-25T02:59:23.397Z,13.35
2022-08-25T03:04:25.112Z,12.77
2022-08-25T03:09:27.562Z,12.70
2022-08-25T03:14:30.293Z,13.85
2022-08-25T03:19:32.309Z,13.18
2022-08-25T03:24:33.995Z,13.13
2022-08-25T03:29:35.897Z,12.55
2022-08-25T03:34:37.652Z,13.38
2022-08-25T03:39:39.908Z,14.15
2022-08-25T03:44:41.557Z,12.05
2022-08-25T03:49:43.741Z,13.27
2022-08-25T03:54:45.390Z,12.48
2022-08-25T03:59:47.600Z,12.43
2022-08-25T04:04:50.263Z,13.20
2022-08-25T04:09:54.230Z,13.27
2022-08-25T04:14:56.276Z,12.63
2022-08-25T04:19:58.607Z,13.63
2022-08-25T04:25:00.288Z,13.07
2022-08-25T04:30:02.352Z,14.48
2022-08-25T04:35:05.309Z,12.98
2022-08-25T04:40:08.102Z,12.70
2022-08-25T04:45:09.865Z,13.40
2022-08-25T04:50:11.790Z,13.70
2022-08-25T04:55:13.624Z,18.33
2022-08-25T05:00:16.244Z,15.60
2022-08-25T05:05:18.225Z,15.80
2022-08-25T05:10:20.385Z,13.30
2022-08-25T05:15:44.346Z,15.30
2022-08-25T05:20:46.376Z,12.80
2022-08-25T05:25:50.974Z,13.65
2022-08-25T05:30:59.328Z,16.63
2022-08-25T05:36:01.479Z,20.57
2022-08-25T05:41:06.648Z,20.40
2022-08-25T05:46:10.066Z,14.77
2022-08-25T05:51:13.039Z,17.83
2022-08-25T05:56:15.115Z,13.23
2022-08-25T06:01:45.761Z,16.55
2022-08-25T06:06:48.967Z,14.13
2022-08-25T06:11:54.726Z,14.65
2022-08-25T06:16:56.986Z,16.75
2022-08-25T06:21:58.746Z,19.95
2022-08-25T06:27:00.475Z,15.93
2022-08-25T06:32:02.250Z,19.30
2022-08-25T06:37:04.241Z,15.13
2022-08-25T06:42:06.021Z,13.82
2022-08-25T06:47:09.687Z,12.30
2022-08-25T06:52:12.973Z,14.57
2022-08-25T06:57:15.002Z,13.70
2022-08-25T07:02:16.695Z,13.75
2022-08-25T07:07:24.222Z,13.57
2022-08-25T07:12:25.860Z,10.77
2022-08-25T07:17:27.748Z,10.65
2022-08-25T07:22:29.693Z,9.93
2022-08-25T07:27:31.333Z,10.40
2022-08-25T07:32:33.189Z,9.57
2022-08-25T07:37:48.972Z,12.25
2022-08-25T07:42:54.480Z,12.40
2022-08-25T07:48:06.368Z,10.90
2022-08-25T07:53:09.214Z,11.13
2022-08-25T07:58:12.343Z,9.63
2022-08-25T08:03:29.461Z,10.82
2022-08-25T08:08:43.369Z,9.30
2022-08-25T08:13:47.389Z,10.75
2022-08-25T08:18:53.152Z,8.82
2022-08-25T08:23:58.934Z,8.18
2022-08-25T08:29:01.774Z,7.57
2022-08-25T08:34:03.708Z,8.20
2022-08-25T08:39:05.587Z,7.80
2022-08-25T08:44:33.315Z,7.93
2022-08-25T08:50:00.774Z,6.90
2022-08-25T08:55:09.704Z,7.93
2022-08-25T09:00:11.787Z,7.03
2022-08-25T09:05:16.816Z,6.32
2022-08-25T09:10:19.657Z,6.03
2022-08-25T09:16:01.724Z,6.30
2022-08-25T09:21:04.128Z,6.10
2022-08-25T09:26:37.932Z,7.35
2022-08-25T09:31:42.460Z,7.38
2022-08-25T09:36:45.646Z,6.50
2022-08-25T09:41:59.154Z,6.90
2022-08-25T09:47:03.076Z,7.25
2022-08-25T09:52:31.893Z,5.90
2022-08-25T09:57:36.720Z,6.72
2022-08-25T10:02:38.723Z,6.85
2022-08-25T10:07:53.119Z,6.35
2022-08-25T10:12:55.148Z,6.22
2022-08-25T10:18:25.606Z,5.72
2022-08-25T10:23:28.423Z,5.10
2022-08-25T10:28:35.429Z,4.93
2022-08-25T10:33:46.326Z,5.07
2022-08-25T10:38:57.680Z,6.45
2022-08-25T10:44:45.029Z,6.20
2022-08-25T10:49:51.201Z,5.47
2022-08-25T10:55:19.928Z,5.38
2022-08-25T11:00:25.831Z,5.63
2022-08-25T11:05:42.496Z,5.57
2022-08-25T11:10:50.393Z,4.63
2022-08-25T11:16:19.553Z,4.90
2022-08-25T11:26:41.632Z,4.68
2022-08-25T11:31:52.165Z,4.47
2022-08-25T11:37:01.104Z,4.40
2022-08-25T11:42:18.163Z,4.60
2022-08-25T11:47:45.456Z,3.65
2022-08-25T11:52:54.036Z,4.22
2022-08-25T11:58:32.741Z,4.10
2022-08-25T12:03:34.345Z,4.45
2022-08-25T12:09:05.651Z,4.35
2022-08-25T12:14:22.500Z,3.45
2022-08-25T12:19:34.242Z,4.45
2022-08-25T12:24:47.285Z,3.53
2022-08-25T12:29:53.056Z,4.10
2022-08-25T12:35:14.296Z,4.32
2022-08-25T12:40:26.322Z,4.40
2022-08-25T12:45:40.185Z,4.20
2022-08-25T12:50:47.892Z,3.40
2022-08-25T12:55:54.337Z,3.90
2022-08-25T13:01:35.839Z,4.10
2022-08-25T13:06:53.801Z,4.55
2022-08-25T13:12:12.125Z,4.53
2022-08-25T13:17:26.285Z,3.00
2022-08-25T13:22:28.006Z,3.42
2022-08-25T13:27:35.710Z,3.20
2022-08-25T13:32:39.042Z,3.30
2022-08-25T13:37:42.140Z,2.90
2022-08-25T13:42:53.034Z,4.13
2022-08-25T13:47:56.622Z,2.97
2022-08-25T13:53:03.007Z,2.70
2022-08-25T13:58:12.836Z,3.97
2022-08-25T14:03:35.878Z,3.30
2022-08-25T14:08:41.058Z,2.80
2022-08-25T14:13:45.418Z,2.40
2022-08-25T14:18:51.889Z,3.42
2022-08-25T14:23:54.761Z,2.40
2022-08-25T14:28:56.687Z,3.30
2022-08-25T14:34:04.910Z,2.47
2022-08-25T14:39:08.606Z,3.00
2022-08-25T14:44:11.306Z,2.45
2022-08-25T14:49:18.546Z,2.70
2022-08-25T14:54:27.992Z,3.33
2022-08-25T14:59:31.560Z,2.75
2022-08-25T15:09:39.728Z,2.88
2022-08-25T15:14:41.572Z,2.42
2022-08-25T15:19:44.300Z,2.70
2022-08-25T15:24:47.735Z,3.92
2022-08-25T15:29:49.879Z,2.38
2022-08-25T15:34:51.869Z,3.10
2022-08-25T15:39:53.500Z,2.97
2022-08-25T15:44:56.084Z,3.00
2022-08-25T15:50:11.713Z,2.40
2022-08-25T15:55:14.268Z,2.97
2022-08-25T16:00:17.055Z,2.60
2022-08-25T16:05:25.176Z,2.53
2022-08-25T16:10:27.430Z,2.63
2022-08-25T16:15:29.581Z,2.88
2022-08-25T16:20:33.523Z,2.70
2022-08-25T16:25:40.328Z,2.50
2022-08-25T16:30:52.719Z,2.50
2022-08-25T16:36:06.289Z,2.17
2022-08-25T16:41:18.496Z,2.00
2022-08-25T16:46:22.162Z,2.00
2022-08-25T16:51:29.785Z,2.22
2022-08-25T16:56:37.076Z,2.55
2022-08-25T17:01:41.304Z,2.10
2022-08-25T17:06:49.422Z,2.63
2022-08-25T17:11:56.840Z,2.20
2022-08-25T17:16:58.556Z,2.30
2022-08-25T17:22:00.180Z,2.38
2022-08-25T17:27:02.178Z,2.30
2022-08-25T17:32:05.178Z,2.38
2022-08-25T17:37:07.025Z,3.10
2022-08-25T17:42:09.124Z,3.13
2022-08-25T17:47:11.395Z,2.60
2022-08-25T17:52:13.192Z,2.50
2022-08-25T17:57:16.117Z,2.50
2022-08-25T18:02:18.069Z,2.65
2022-08-25T18:07:19.928Z,2.55
2022-08-25T18:12:21.768Z,2.10
2022-08-25T18:17:29.275Z,2.63
2022-08-25T18:22:31.969Z,2.55
2022-08-25T18:27:35.190Z,2.55
2022-08-25T18:32:37.375Z,2.83
2022-08-25T18:37:57.784Z,3.10
2022-08-25T18:43:07.429Z,2.70
2022-08-25T18:48:10.150Z,2.92
2022-08-25T18:53:13.196Z,2.92
2022-08-25T18:58:16.241Z,3.17
2022-08-25T19:03:20.628Z,3.10
2022-08-25T19:08:22.564Z,2.85
2022-08-25T19:13:24.273Z,2.88
2022-08-25T19:18:29.134Z,2.90
2022-08-25T19:23:32.647Z,3.05
2022-08-25T19:28:35.749Z,3.13
2022-08-25T19:33:44.749Z,3.13
2022-08-25T19:38:47.272Z,3.00
2022-08-25T19:43:56.721Z,3.30
2022-08-25T19:49:02.585Z,3.55
2022-08-25T19:54:10.839Z,3.40
2022-08-25T19:59:13.855Z,3.10
2022-08-25T20:04:16.063Z,3.05
2022-08-25T20:09:21.077Z,3.00
2022-08-25T20:14:40.353Z,2.70
2022-08-25T20:19:43.125Z,3.60
2022-08-25T20:24:51.130Z,3.67
2022-08-25T20:29:58.327Z,3.33
2022-08-25T20:35:01.342Z,3.38
2022-08-25T20:40:05.243Z,3.70
2022-08-25T20:45:08.615Z,3.53
2022-08-25T20:50:11.929Z,3.58
2022-08-25T20:55:13.833Z,3.40
2022-08-25T21:00:17.994Z,3.20
2022-08-25T21:05:20.145Z,3.40
2022-08-25T21:10:22.116Z,3.30
2022-08-25T21:15:24.161Z,3.22
2022-08-25T21:20:25.966Z,3.70
2022-08-25T21:25:27.613Z,3.53
2022-08-25T21:30:29.696Z,3.90
2022-08-25T21:35:31.637Z,3.88
2022-08-25T21:40:36.836Z,3.08
2022-08-25T21:45:46.420Z,3.17
2022-08-25T21:50:48.380Z,3.95
2022-08-25T21:55:50.415Z,4.13
2022-08-25T22:00:52.110Z,3.83
2022-08-25T22:05:55.084Z,3.97
2022-08-25T22:10:57.177Z,3.55
2022-08-25T22:15:59.091Z,3.30
2022-08-25T22:21:00.782Z,4.20
2022-08-25T22:26:09.469Z,3.80
2022-08-25T22:31:12.424Z,4.50
2022-08-25T22:36:27.124Z,4.20
2022-08-25T22:41:31.680Z,4.38
2022-08-25T22:46:35.126Z,4.25
2022-08-25T22:51:37.631Z,4.28
2022-08-25T22:56:39.723Z,4.07
2022-08-25T23:01:43.720Z,4.50
2022-08-25T23:06:46.014Z,4.15
2022-08-25T23:11:51.272Z,4.57
2022-08-25T23:16:53.431Z,4.32
2022-08-25T23:22:10.675Z,3.72
2022-08-25T23:27:17.112Z,4.22
2022-08-25T23:32:20.109Z,4.13
2022-08-25T23:37:21.806Z,4.60
2022-08-25T23:42:24.682Z,5.18
2022-08-25T23:47:26.793Z,4.70
2022-08-25T23:52:28.513Z,5.00
2022-08-25T23:57:31.979Z,4.65
